Time;durP1;ratioP1;P1;durP2;ratioP2;P2;SDS_P1;SDS_P2;PMS_P1;PMS_P2;Temp;Humidity;BMP_temperature;BMP_pressure;BME280_temperature;BME280_humidity;BME280_pressure;Samples;Min_cycle;Max_cycle;Signal;HPM_P1;HPM_P2
2021/12/23 00:01:52;;;;;;;;;;;2.50;78.40;;;;;;5038235;28;19910;-80
2021/12/23 00:04:18;;;;;;;;;;;2.50;78.50;;;;;;5038041;28;20042;-80
2021/12/23 00:06:44;;;;;;;;;;;2.50;78.50;;;;;;5038183;28;19909;-80
2021/12/23 00:09:10;;;;;;;;;;;2.50;78.50;;;;;;5038168;28;19909;-80
2021/12/23 00:11:36;;;;;;;;;;;2.50;78.80;;;;;;5037901;28;20253;-80
2021/12/23 00:14:07;;;;;;;;;;;2.50;78.70;;;;;;5055462;28;19913;-80
2021/12/23 00:16:45;;;;;;;;;;;2.40;78.80;;;;;;5037827;28;19948;-81
2021/12/23 00:24:30;;;;;;;;;;;2.40;78.80;;;;;;5055462;28;19958;-80
2021/12/23 00:26:56;;;;;;;;;;;2.40;78.60;;;;;;5037281;28;19908;-76
2021/12/23 00:29:22;;;;;;;;;;;2.40;78.60;;;;;;5037118;28;20352;-76
2021/12/23 00:31:47;;;;;;;;;;;2.50;78.60;;;;;;5055214;28;19962;-76
2021/12/23 00:34:13;;;;;;;;;;;2.50;78.50;;;;;;5036841;28;19913;-75
2021/12/23 00:36:41;;;;;;;;;;;2.50;78.50;;;;;;5037016;28;20283;-76
2021/12/23 00:39:08;;;;;;;;;;;2.50;78.50;;;;;;5054964;28;19954;-76
2021/12/23 00:41:34;;;;;;;;;;;2.40;78.70;;;;;;5051137;28;19920;-76
2021/12/23 00:43:59;;;;;;;;;;;2.50;78.80;;;;;;5053461;28;20053;-76
2021/12/23 00:46:25;;;;;;;;;;;2.50;78.70;;;;;;5036797;28;20038;-76
2021/12/23 00:48:50;;;;;;;;;;;2.50;78.60;;;;;;5053275;28;19946;-76
2021/12/23 00:51:16;;;;;;;;;;;2.50;78.50;;;;;;5054689;28;20350;-76
2021/12/23 00:53:42;;;;;;;;;;;2.50;78.40;;;;;;5036610;28;19920;-76
2021/12/23 00:56:11;;;;;;;;;;;2.50;78.40;;;;;;5054572;28;19959;-76
2021/12/23 00:58:36;;;;;;;;;;;2.50;78.30;;;;;;5036660;28;19909;-76
2021/12/23 01:01:02;;;;;;;;;;;2.50;78.20;;;;;;5036584;28;20039;-76
2021/12/23 01:03:28;;;;;;;;;;;2.60;78.30;;;;;;5053278;28;20372;-76
2021/12/23 01:05:54;;;;;;;;;;;2.60;78.20;;;;;;5052945;28;20426;-76
2021/12/23 01:08:19;;;;;;;;;;;2.60;78.20;;;;;;5052853;28;20307;-76
2021/12/23 01:10:50;;;;;;;;;;;2.60;78.60;;;;;;5054321;28;20336;-76
2021/12/23 01:13:17;;;;;;;;;;;2.60;78.70;;;;;;5052628;28;20303;-77
2021/12/23 01:18:30;;;;;;;;;;;2.60;78.50;;;;;;5054512;28;19919;-75
2021/12/23 01:21:04;;;;;;;;;;;2.60;78.40;;;;;;5054211;28;19916;-75
2021/12/23 01:23:34;;;;;;;;;;;2.60;78.30;;;;;;5052675;28;19970;-76
2021/12/23 01:26:00;;;;;;;;;;;2.70;78.60;;;;;;5053474;28;19912;-76
2021/12/23 01:28:26;;;;;;;;;;;2.60;78.60;;;;;;5036202;28;19915;-76
2021/12/23 01:30:51;;;;;;;;;;;2.60;78.50;;;;;;5036099;28;20406;-76
2021/12/23 01:33:17;;;;;;;;;;;2.60;78.40;;;;;;5035965;28;19916;-76
2021/12/23 01:35:45;;;;;;;;;;;2.60;78.40;;;;;;5053923;28;20372;-76
2021/12/23 01:38:10;;;;;;;;;;;2.60;78.40;;;;;;5052372;28;19908;-76
2021/12/23 01:40:36;;;;;;;;;;;2.60;78.60;;;;;;5035655;28;19917;-76
2021/12/23 01:43:04;;;;;;;;;;;2.60;78.50;;;;;;5053714;28;19915;-76
2021/12/23 01:45:31;;;;;;;;;;;2.60;78.40;;;;;;5053588;28;19916;-77
2021/12/23 01:47:57;;;;;;;;;;;2.60;78.40;;;;;;5035929;28;20383;-78
2021/12/23 01:50:26;;;;;;;;;;;2.60;78.20;;;;;;5035699;28;19912;-77
2021/12/23 01:52:52;;;;;;;;;;;2.60;78.20;;;;;;5035688;28;19912;-78
2021/12/23 01:55:19;;;;;;;;;;;2.60;78.10;;;;;;5035542;28;20328;-77
2021/12/23 01:57:45;;;;;;;;;;;2.70;78.10;;;;;;5053666;28;19908;-78
2021/12/23 02:00:12;;;;;;;;;;;2.70;78.00;;;;;;5035641;28;20360;-78
2021/12/23 02:02:38;;;;;;;;;;;2.60;77.80;;;;;;5035505;28;19913;-77
2021/12/23 02:05:05;;;;;;;;;;;2.60;77.90;;;;;;5052167;28;19955;-78
2021/12/23 02:07:30;;;;;;;;;;;2.60;77.80;;;;;;5035573;28;19909;-77
2021/12/23 02:09:56;;;;;;;;;;;2.60;77.80;;;;;;5053512;28;19915;-77
2021/12/23 02:12:22;;;;;;;;;;;2.50;78.10;;;;;;5035538;28;19908;-77
2021/12/23 02:14:47;;;;;;;;;;;2.50;78.00;;;;;;5035377;28;19916;-77
2021/12/23 02:20:18;;;;;;;;;;;2.50;78.10;;;;;;5053522;28;20050;-77
2021/12/23 02:22:43;;;;;;;;;;;2.50;78.00;;;;;;5035409;28;20403;-77
2021/12/23 02:25:11;;;;;;;;;;;2.50;77.90;;;;;;5035475;28;19909;-77
2021/12/23 02:27:37;;;;;;;;;;;2.50;77.90;;;;;;5035507;28;19909;-77
2021/12/23 02:30:05;;;;;;;;;;;2.40;78.00;;;;;;5035346;28;19916;-77
2021/12/23 02:32:30;;;;;;;;;;;2.40;78.10;;;;;;5035053;28;19964;-77
2021/12/23 02:34:56;;;;;;;;;;;2.40;78.10;;;;;;5035165;28;19917;-78
2021/12/23 02:37:22;;;;;;;;;;;2.40;78.10;;;;;;5035272;28;20415;-77
2021/12/23 02:39:47;;;;;;;;;;;2.30;78.20;;;;;;5039108;28;19913;-76
2021/12/23 02:42:13;;;;;;;;;;;2.30;78.40;;;;;;5057162;28;19909;-77
2021/12/23 02:44:38;;;;;;;;;;;2.30;78.40;;;;;;5039131;28;19909;-78
2021/12/23 02:47:04;;;;;;;;;;;2.30;78.30;;;;;;5057093;28;20391;-77
2021/12/23 02:49:29;;;;;;;;;;;2.30;78.30;;;;;;5038850;28;19908;-78
2021/12/23 02:51:55;;;;;;;;;;;2.30;78.20;;;;;;5056979;28;19962;-77
2021/12/23 02:54:21;;;;;;;;;;;2.30;78.20;;;;;;5038589;28;19965;-77
2021/12/23 02:56:46;;;;;;;;;;;2.20;78.10;;;;;;5056724;28;19909;-77
2021/12/23 02:59:12;;;;;;;;;;;2.20;78.40;;;;;;5038581;28;20391;-77
2021/12/23 03:01:37;;;;;;;;;;;2.10;78.40;;;;;;5056838;28;19920;-77
2021/12/23 03:04:03;;;;;;;;;;;2.10;78.50;;;;;;5056428;28;20418;-77
2021/12/23 03:06:29;;;;;;;;;;;2.10;78.50;;;;;;5056357;28;19909;-77
2021/12/23 03:08:59;;;;;;;;;;;2.10;78.50;;;;;;5038923;28;20021;-77
2021/12/23 03:11:26;;;;;;;;;;;2.10;78.50;;;;;;5038150;28;19912;-77
2021/12/23 03:13:51;;;;;;;;;;;2.10;78.40;;;;;;5056132;28;20371;-76
2021/12/23 03:16:24;;;;;;;;;;;2.10;78.30;;;;;;5038572;28;19919;-75
2021/12/23 03:18:50;;;;;;;;;;;2.20;78.30;;;;;;5038194;28;19966;-76
2021/12/23 03:21:16;;;;;;;;;;;2.10;78.20;;;;;;5056173;28;19912;-76
2021/12/23 03:23:42;;;;;;;;;;;2.20;78.30;;;;;;5056086;28;19932;-76
2021/12/23 03:26:07;;;;;;;;;;;2.10;78.50;;;;;;5038093;28;19913;-76
2021/12/23 03:28:33;;;;;;;;;;;2.10;79.20;;;;;;5037956;28;19908;-76
2021/12/23 03:30:59;;;;;;;;;;;2.10;81.70;;;;;;5055906;28;19916;-76
2021/12/23 03:33:25;;;;;;;;;;;2.10;83.60;;;;;;5055774;28;19962;-76
2021/12/23 03:35:50;;;;;;;;;;;2.00;83.70;;;;;;5038054;28;19908;-76
2021/12/23 03:38:16;;;;;;;;;;;2.00;83.50;;;;;;5037881;28;19909;-76
2021/12/23 03:40:42;;;;;;;;;;;2.00;83.40;;;;;;5048132;28;20389;-76
2021/12/23 03:43:10;;;;;;;;;;;1.90;83.40;;;;;;5057674;28;19981;-76
2021/12/23 03:45:36;;;;;;;;;;;1.90;86.00;;;;;;5057762;28;19908;-76
2021/12/23 03:48:02;;;;;;;;;;;1.90;86.70;;;;;;5075622;28;19909;-77
2021/12/23 03:50:27;;;;;;;;;;;1.80;86.70;;;;;;5057424;28;19919;-76
2021/12/23 03:52:53;;;;;;;;;;;1.80;86.80;;;;;;5057615;28;19908;-76
2021/12/23 03:55:19;;;;;;;;;;;1.70;86.50;;;;;;5057794;28;19919;-76
2021/12/23 03:57:46;;;;;;;;;;;1.80;86.00;;;;;;5074294;28;20356;-76
2021/12/23 04:00:13;;;;;;;;;;;1.70;88.20;;;;;;5057431;28;20319;-76
2021/12/23 04:02:38;;;;;;;;;;;1.70;88.80;;;;;;5057353;28;19940;-76
2021/12/23 04:05:06;;;;;;;;;;;1.70;88.50;;;;;;5057209;28;20433;-77
2021/12/23 04:07:32;;;;;;;;;;;1.70;88.30;;;;;;5057220;28;19908;-76
2021/12/23 04:09:58;;;;;;;;;;;1.80;87.80;;;;;;5073923;28;20382;-76
2021/12/23 04:12:23;;;;;;;;;;;1.80;87.80;;;;;;5075237;28;19908;-76
2021/12/23 04:14:49;;;;;;;;;;;1.80;88.80;;;;;;5057016;28;19919;-76
2021/12/23 04:17:14;;;;;;;;;;;1.80;90.00;;;;;;5057244;28;19908;-76
2021/12/23 04:19:43;;;;;;;;;;;1.80;90.00;;;;;;5057181;28;20367;-76
2021/12/23 04:22:08;;;;;;;;;;;1.80;89.50;;;;;;5057038;28;19915;-76
2021/12/23 04:24:34;;;;;;;;;;;1.80;88.70;;;;;;5075006;28;20352;-76
2021/12/23 04:26:59;;;;;;;;;;;1.80;88.20;;;;;;5057008;28;19909;-76
2021/12/23 04:29:28;;;;;;;;;;;1.90;87.80;;;;;;5056807;28;19908;-77
2021/12/23 04:31:53;;;;;;;;;;;1.90;87.40;;;;;;5056857;28;20020;-76
2021/12/23 04:34:19;;;;;;;;;;;1.90;86.90;;;;;;5056719;28;19995;-76
2021/12/23 04:36:44;;;;;;;;;;;1.90;86.30;;;;;;5074726;28;19911;-76
2021/12/23 04:39:10;;;;;;;;;;;1.90;86.20;;;;;;5074720;28;19904;-76
2021/12/23 04:41:36;;;;;;;;;;;1.90;85.80;;;;;;5056536;28;19916;-76
2021/12/23 04:44:01;;;;;;;;;;;1.90;85.60;;;;;;5056876;28;20347;-76
2021/12/23 04:46:30;;;;;;;;;;;1.90;85.30;;;;;;5056672;28;20477;-79
2021/12/23 04:48:55;;;;;;;;;;;2.00;84.90;;;;;;5074919;28;20253;-80
2021/12/23 04:51:21;;;;;;;;;;;2.00;84.50;;;;;;5074902;28;19911;-80
2021/12/23 04:53:47;;;;;;;;;;;2.10;84.30;;;;;;5053950;28;19958;-79
2021/12/23 04:56:13;;;;;;;;;;;2.10;84.00;;;;;;5056755;28;19904;-80
2021/12/23 04:58:39;;;;;;;;;;;2.20;83.70;;;;;;5074906;28;19905;-80
2021/12/23 05:01:06;;;;;;;;;;;2.20;83.40;;;;;;5055806;28;19911;-79
2021/12/23 05:03:32;;;;;;;;;;;2.30;83.20;;;;;;5056355;28;19949;-80
2021/12/23 05:05:57;;;;;;;;;;;2.30;83.00;;;;;;5074489;28;20317;-80
2021/12/23 05:08:23;;;;;;;;;;;2.30;82.60;;;;;;5056857;28;19995;-80
2021/12/23 05:10:49;;;;;;;;;;;2.30;82.50;;;;;;5056796;28;19911;-80
2021/12/23 05:13:14;;;;;;;;;;;2.30;82.20;;;;;;5056223;28;19912;-80
2021/12/23 05:15:40;;;;;;;;;;;2.30;82.00;;;;;;5056330;28;19904;-79
2021/12/23 05:18:06;;;;;;;;;;;2.40;81.90;;;;;;5074182;28;19905;-80
2021/12/23 05:20:31;;;;;;;;;;;2.30;81.70;;;;;;5056397;28;19950;-80
2021/12/23 05:22:56;;;;;;;;;;;2.30;81.50;;;;;;5074323;28;20005;-80
2021/12/23 05:25:22;;;;;;;;;;;2.40;81.20;;;;;;5056254;28;19905;-80
2021/12/23 05:27:48;;;;;;;;;;;2.30;81.00;;;;;;5056155;28;19908;-80
2021/12/23 05:30:14;;;;;;;;;;;2.30;81.00;;;;;;5056165;28;19916;-80
2021/12/23 05:32:43;;;;;;;;;;;2.40;80.90;;;;;;5055860;28;19910;-79
2021/12/23 05:35:10;;;;;;;;;;;2.40;80.70;;;;;;5055746;28;19951;-79
2021/12/23 05:37:36;;;;;;;;;;;2.30;80.50;;;;;;5055886;28;19905;-80
2021/12/23 05:40:02;;;;;;;;;;;2.40;80.50;;;;;;5055502;28;19935;-79
2021/12/23 05:42:27;;;;;;;;;;;2.40;80.40;;;;;;5073837;28;20939;-80
2021/12/23 05:44:53;;;;;;;;;;;2.40;80.30;;;;;;5056139;28;19911;-80
2021/12/23 05:47:18;;;;;;;;;;;2.40;80.20;;;;;;5055765;28;19926;-80
2021/12/23 05:49:44;;;;;;;;;;;2.50;80.10;;;;;;5055811;28;20264;-80
2021/12/23 05:52:09;;;;;;;;;;;2.40;79.90;;;;;;5055762;28;19938;-80
2021/12/23 05:54:35;;;;;;;;;;;2.50;79.90;;;;;;5055687;28;19955;-80
2021/12/23 05:57:03;;;;;;;;;;;2.50;80.40;;;;;;5055611;28;19905;-80
2021/12/23 05:59:29;;;;;;;;;;;2.40;79.60;;;;;;5055454;28;20372;-79
2021/12/23 06:01:55;;;;;;;;;;;2.40;79.60;;;;;;5055549;28;20374;-79
2021/12/23 06:04:20;;;;;;;;;;;2.50;79.60;;;;;;5055744;28;19904;-81
2021/12/23 06:06:46;;;;;;;;;;;2.50;79.40;;;;;;5073545;28;19904;-80
2021/12/23 06:09:11;;;;;;;;;;;2.50;79.40;;;;;;5055668;28;19947;-81
2021/12/23 06:11:37;;;;;;;;;;;2.50;79.20;;;;;;5055426;28;19947;-80
2021/12/23 06:14:02;;;;;;;;;;;2.50;79.10;;;;;;5055418;28;20308;-80
2021/12/23 06:16:28;;;;;;;;;;;2.50;78.90;;;;;;5073533;28;19911;-80
2021/12/23 06:18:53;;;;;;;;;;;2.40;78.90;;;;;;5055726;28;19911;-82
2021/12/23 06:21:20;;;;;;;;;;;2.40;78.90;;;;;;5055481;28;19913;-80
2021/12/23 06:23:45;;;;;;;;;;;2.40;78.80;;;;;;5073470;28;19905;-79
2021/12/23 06:26:12;;;;;;;;;;;2.40;78.80;;;;;;5055815;28;19995;-80
2021/12/23 06:28:37;;;;;;;;;;;2.40;78.80;;;;;;5055431;28;19912;-79
2021/12/23 06:31:03;;;;;;;;;;;2.40;78.80;;;;;;5055517;28;19904;-80
2021/12/23 06:33:28;;;;;;;;;;;2.40;78.70;;;;;;5055069;28;20007;-80
2021/12/23 06:35:54;;;;;;;;;;;2.30;78.60;;;;;;5055416;28;19987;-80
2021/12/23 06:38:19;;;;;;;;;;;2.30;78.70;;;;;;5055620;28;19904;-80
2021/12/23 06:40:45;;;;;;;;;;;2.30;78.70;;;;;;5073118;28;20374;-80
2021/12/23 06:43:10;;;;;;;;;;;2.30;78.50;;;;;;5073051;28;20348;-80
2021/12/23 06:45:39;;;;;;;;;;;2.30;78.20;;;;;;5055431;28;20405;-81
2021/12/23 06:48:04;;;;;;;;;;;2.30;78.30;;;;;;5071924;28;19908;-81
2021/12/23 06:50:30;;;;;;;;;;;2.30;78.20;;;;;;5071970;28;19916;-80
2021/12/23 06:52:55;;;;;;;;;;;2.30;78.10;;;;;;5055260;28;20443;-80
2021/12/23 06:55:21;;;;;;;;;;;2.30;78.00;;;;;;5055381;28;19938;-80
2021/12/23 06:57:53;;;;;;;;;;;2.30;78.00;;;;;;5055472;28;20287;-81
2021/12/23 07:00:18;;;;;;;;;;;2.30;78.10;;;;;;5055535;28;19908;-80
2021/12/23 07:02:44;;;;;;;;;;;2.30;78.00;;;;;;5055558;28;19911;-77
2021/12/23 07:05:09;;;;;;;;;;;2.30;77.90;;;;;;5054655;28;20274;-77
2021/12/23 07:07:52;;;;;;;;;;;2.40;78.00;;;;;;5054634;28;19904;-77
2021/12/23 07:10:19;;;;;;;;;;;2.40;77.80;;;;;;5054681;28;20425;-77
2021/12/23 07:12:45;;;;;;;;;;;2.40;77.80;;;;;;5072719;28;19904;-77
2021/12/23 07:15:10;;;;;;;;;;;2.40;77.70;;;;;;5054989;28;19908;-77
2021/12/23 07:17:37;;;;;;;;;;;2.40;77.70;;;;;;5072646;28;19952;-77
2021/12/23 07:20:04;;;;;;;;;;;2.50;77.70;;;;;;5054588;28;20334;-78
2021/12/23 07:22:29;;;;;;;;;;;2.50;77.60;;;;;;5054884;28;19911;-77
2021/12/23 07:24:55;;;;;;;;;;;2.50;77.50;;;;;;5074090;28;20313;-78
2021/12/23 07:27:21;;;;;;;;;;;2.50;77.50;;;;;;5058260;28;20003;-77
2021/12/23 07:29:47;;;;;;;;;;;2.50;77.40;;;;;;5076183;28;19904;-73
2021/12/23 07:32:13;;;;;;;;;;;2.50;77.40;;;;;;5058137;28;20017;-74
2021/12/23 07:34:40;;;;;;;;;;;2.60;77.50;;;;;;5057978;28;19994;-74
2021/12/23 07:37:06;;;;;;;;;;;2.60;77.40;;;;;;5058084;28;19988;-73
2021/12/23 07:39:31;;;;;;;;;;;2.50;77.30;;;;;;5057133;28;20330;-74
2021/12/23 07:41:57;;;;;;;;;;;2.60;77.30;;;;;;5055972;28;20005;-75
2021/12/23 07:44:23;;;;;;;;;;;2.60;77.30;;;;;;5037974;28;19905;-75
2021/12/23 07:46:49;;;;;;;;;;;2.50;77.10;;;;;;5038004;28;19912;-74
2021/12/23 07:49:14;;;;;;;;;;;2.50;77.00;;;;;;5037808;28;19942;-73
2021/12/23 07:51:40;;;;;;;;;;;2.50;77.10;;;;;;5037820;28;19954;-74
2021/12/23 07:54:06;;;;;;;;;;;2.60;77.20;;;;;;5055655;28;19908;-73
2021/12/23 07:56:31;;;;;;;;;;;2.50;77.10;;;;;;5037713;28;19991;-73
2021/12/23 07:58:57;;;;;;;;;;;2.50;77.10;;;;;;5038079;28;19915;-74
2021/12/23 08:01:23;;;;;;;;;;;2.60;77.30;;;;;;5037477;28;20368;-74
2021/12/23 08:03:48;;;;;;;;;;;2.60;77.30;;;;;;5037609;28;19904;-74
2021/12/23 08:06:14;;;;;;;;;;;2.60;77.30;;;;;;5037471;28;19905;-74
2021/12/23 08:08:40;;;;;;;;;;;2.60;77.30;;;;;;5037566;28;19904;-73
2021/12/23 08:11:06;;;;;;;;;;;2.70;77.20;;;;;;5055258;28;19905;-75
2021/12/23 08:13:32;;;;;;;;;;;2.70;77.20;;;;;;5037101;28;19962;-74
2021/12/23 08:15:58;;;;;;;;;;;2.70;77.20;;;;;;5055018;28;19959;-74
2021/12/23 08:18:25;;;;;;;;;;;2.70;77.10;;;;;;5037122;28;19921;-74
2021/12/23 08:23:54;;;;;;;;;;;2.70;77.10;;;;;;5055076;28;19912;-75
2021/12/23 08:26:22;;;;;;;;;;;2.70;77.10;;;;;;5036808;28;19908;-75
2021/12/23 08:28:49;;;;;;;;;;;2.70;77.20;;;;;;5036987;28;19908;-75
2021/12/23 08:31:15;;;;;;;;;;;2.70;77.30;;;;;;5036837;28;19954;-75
2021/12/23 08:33:40;;;;;;;;;;;2.70;77.20;;;;;;5036731;28;19913;-76
2021/12/23 08:36:06;;;;;;;;;;;2.70;77.20;;;;;;5036692;28;20229;-75
2021/12/23 08:41:34;;;;;;;;;;;2.80;77.20;;;;;;5054474;28;19978;-76
2021/12/23 08:44:00;;;;;;;;;;;2.80;77.20;;;;;;5036521;28;20298;-76
2021/12/23 08:46:25;;;;;;;;;;;2.80;77.20;;;;;;5036398;28;20302;-75
2021/12/23 08:48:51;;;;;;;;;;;2.80;77.30;;;;;;5036585;28;20364;-74
2021/12/23 08:51:17;;;;;;;;;;;2.80;77.40;;;;;;5036471;28;19916;-75
2021/12/23 08:53:42;;;;;;;;;;;2.80;77.30;;;;;;5036274;28;19932;-75
2021/12/23 08:59:12;;;;;;;;;;;2.80;77.40;;;;;;5054362;28;20100;-75
2021/12/23 09:01:41;;;;;;;;;;;2.80;77.50;;;;;;5033609;28;19920;-75
2021/12/23 09:04:07;;;;;;;;;;;2.80;77.50;;;;;;5036131;28;19909;-75
2021/12/23 09:06:32;;;;;;;;;;;2.90;77.50;;;;;;5036047;28;20400;-75
2021/12/23 09:08:58;;;;;;;;;;;2.90;77.50;;;;;;5036077;28;19909;-74
2021/12/23 09:11:24;;;;;;;;;;;2.90;77.40;;;;;;5053961;28;20395;-76
2021/12/23 09:13:50;;;;;;;;;;;2.90;77.60;;;;;;5035812;28;20287;-76
2021/12/23 09:16:16;;;;;;;;;;;2.90;77.60;;;;;;5036029;28;19909;-75
2021/12/23 09:18:42;;;;;;;;;;;2.90;77.50;;;;;;5035901;28;20007;-75
2021/12/23 09:21:07;;;;;;;;;;;2.90;77.50;;;;;;5035769;28;19951;-75
2021/12/23 09:23:33;;;;;;;;;;;3.00;77.50;;;;;;5050869;28;20011;-75
2021/12/23 09:25:59;;;;;;;;;;;3.00;77.30;;;;;;5035720;28;20387;-75
2021/12/23 09:33:37;;;;;;;;;;;3.10;77.30;;;;;;5054101;28;19923;-76
2021/12/23 09:36:04;;;;;;;;;;;3.20;77.30;;;;;;5035815;28;19908;-76
2021/12/23 09:38:30;;;;;;;;;;;3.20;77.20;;;;;;5050338;28;19920;-76
2021/12/23 09:41:16;;;;;;;;;;;3.20;77.00;;;;;;5044538;28;19928;-76
2021/12/23 09:43:42;;;;;;;;;;;3.20;77.00;;;;;;5055121;28;20256;-76
2021/12/23 09:46:09;;;;;;;;;;;3.20;77.10;;;;;;5055060;28;19945;-76
2021/12/23 09:48:37;;;;;;;;;;;3.20;77.10;;;;;;5073336;28;19908;-77
2021/12/23 09:51:05;;;;;;;;;;;3.20;77.10;;;;;;5072193;28;20012;-76
2021/12/23 09:53:32;;;;;;;;;;;3.30;77.20;;;;;;5072215;28;19912;-76
2021/12/23 09:55:57;;;;;;;;;;;3.30;77.10;;;;;;5055544;28;19959;-76
2021/12/23 09:58:24;;;;;;;;;;;3.30;77.00;;;;;;5055227;28;19915;-76
2021/12/23 10:00:51;;;;;;;;;;;3.30;77.00;;;;;;5056249;28;20340;-75
2021/12/23 10:03:18;;;;;;;;;;;3.40;76.90;;;;;;5055262;28;20257;-76
2021/12/23 10:05:44;;;;;;;;;;;3.50;76.90;;;;;;5055375;28;20291;-76
2021/12/23 10:08:12;;;;;;;;;;;3.40;76.80;;;;;;5072161;28;19916;-76
2021/12/23 10:27:15;;;;;;;;;;;3.80;76.50;;;;;;5073277;28;19914;-76
2021/12/23 10:32:50;;;;;;;;;;;3.80;76.30;;;;;;5074435;28;19954;-81
2021/12/23 10:38:10;;;;;;;;;;;3.90;76.40;;;;;;5074087;28;19914;-80
2021/12/23 10:40:37;;;;;;;;;;;3.90;76.40;;;;;;5072675;28;19916;-81
2021/12/23 10:43:03;;;;;;;;;;;3.90;76.30;;;;;;5055741;28;19912;-80
2021/12/23 10:45:34;;;;;;;;;;;4.00;76.30;;;;;;5055673;28;19974;-81
2021/12/23 10:48:07;;;;;;;;;;;3.90;76.10;;;;;;5072650;28;20004;-80
2021/12/23 10:50:39;;;;;;;;;;;4.00;76.20;;;;;;5055911;28;19908;-81
2021/12/23 10:53:08;;;;;;;;;;;4.00;76.30;;;;;;5072578;28;20232;-81
2021/12/23 10:58:19;;;;;;;;;;;4.10;76.30;;;;;;5073858;28;19915;-81
2021/12/23 11:00:49;;;;;;;;;;;4.20;76.30;;;;;;5059539;28;20283;-81
2021/12/23 11:03:27;;;;;;;;;;;4.20;76.30;;;;;;5059663;28;19908;-80
2021/12/23 11:06:07;;;;;;;;;;;4.20;76.20;;;;;;5059517;28;19987;-80
2021/12/23 11:08:47;;;;;;;;;;;4.30;76.10;;;;;;5076053;28;19908;-80
2021/12/23 11:28:29;;;;;;;;;;;4.60;75.90;;;;;;5077584;28;19915;-79
2021/12/23 11:39:00;;;;;;;;;;;4.80;76.10;;;;;;5078895;28;20044;-78
2021/12/23 11:43:57;;;;;;;;;;;4.80;75.90;;;;;;5074799;28;19957;-77
2021/12/23 11:46:41;;;;;;;;;;;4.70;75.80;;;;;;5077892;28;19916;-79
2021/12/23 11:49:09;;;;;;;;;;;4.70;76.00;;;;;;5076978;28;20034;-77
2021/12/23 11:54:07;;;;;;;;;;;4.70;76.00;;;;;;5076780;28;19919;-78
2021/12/23 11:56:38;;;;;;;;;;;4.70;76.00;;;;;;5058446;28;19916;-80
2021/12/23 11:59:04;;;;;;;;;;;4.70;76.00;;;;;;5058306;28;19908;-79
2021/12/23 12:01:31;;;;;;;;;;;4.80;76.10;;;;;;5076152;28;19996;-78
2021/12/23 12:04:08;;;;;;;;;;;4.80;76.10;;;;;;5058050;28;19908;-79
2021/12/23 12:06:45;;;;;;;;;;;4.80;76.00;;;;;;5057892;28;19912;-77
2021/12/23 12:09:15;;;;;;;;;;;4.80;76.00;;;;;;5057678;28;19930;-79
2021/12/23 12:11:46;;;;;;;;;;;4.90;76.00;;;;;;5057856;28;20435;-79
2021/12/23 12:14:31;;;;;;;;;;;4.90;76.00;;;;;;5057499;28;20394;-79
2021/12/23 12:17:16;;;;;;;;;;;4.90;75.90;;;;;;5057547;28;19908;-80
2021/12/23 12:19:51;;;;;;;;;;;4.90;76.00;;;;;;5049022;28;20407;-79
2021/12/23 12:22:35;;;;;;;;;;;4.90;75.90;;;;;;5075524;28;20424;-79
2021/12/23 12:25:01;;;;;;;;;;;4.90;75.90;;;;;;5075492;28;20364;-79
2021/12/23 12:27:27;;;;;;;;;;;4.90;75.90;;;;;;5075401;28;19954;-79
2021/12/23 12:30:04;;;;;;;;;;;4.90;76.00;;;;;;5057455;28;19908;-79
2021/12/23 12:32:33;;;;;;;;;;;4.90;76.00;;;;;;5057230;28;20352;-79
2021/12/23 12:34:59;;;;;;;;;;;4.90;76.00;;;;;;5057242;28;19920;-79
2021/12/23 12:37:39;;;;;;;;;;;4.90;75.90;;;;;;5056880;28;20431;-79
2021/12/23 12:40:05;;;;;;;;;;;5.00;76.10;;;;;;5013154;28;19917;-78
2021/12/23 12:42:34;;;;;;;;;;;5.00;76.10;;;;;;5013137;28;19944;-78
2021/12/23 12:45:08;;;;;;;;;;;5.00;76.00;;;;;;4996702;28;19916;-78
2021/12/23 12:47:38;;;;;;;;;;;5.00;76.10;;;;;;4996753;28;20009;-78
2021/12/23 12:50:04;;;;;;;;;;;5.00;76.00;;;;;;4996767;28;20393;-79
2021/12/23 12:52:30;;;;;;;;;;;5.10;76.10;;;;;;5013329;28;19996;-78
2021/12/23 12:54:58;;;;;;;;;;;5.20;76.00;;;;;;5013080;28;19913;-78
2021/12/23 12:57:26;;;;;;;;;;;5.20;75.90;;;;;;5013260;28;19909;-78
2021/12/23 12:59:51;;;;;;;;;;;5.20;75.90;;;;;;4996378;28;19909;-77
2021/12/23 13:02:19;;;;;;;;;;;5.20;75.90;;;;;;4996351;28;19913;-78
2021/12/23 13:04:57;;;;;;;;;;;5.30;76.00;;;;;;5012523;28;20008;-77
2021/12/23 13:07:25;;;;;;;;;;;5.30;76.00;;;;;;5012473;28;19915;-77
2021/12/23 13:09:52;;;;;;;;;;;5.30;76.00;;;;;;5012685;28;20434;-77
2021/12/23 13:12:30;;;;;;;;;;;5.40;76.10;;;;;;5073201;28;20275;-77
2021/12/23 13:15:16;;;;;;;;;;;5.40;76.00;;;;;;5073333;28;19945;-78
2021/12/23 13:18:01;;;;;;;;;;;5.40;76.00;;;;;;5056475;28;19909;-78
2021/12/23 13:20:35;;;;;;;;;;;5.50;76.00;;;;;;5056478;28;19912;-78
2021/12/23 13:23:03;;;;;;;;;;;5.40;75.90;;;;;;5056162;28;19913;-79
2021/12/23 13:25:30;;;;;;;;;;;5.40;75.90;;;;;;5074449;28;19908;-79
2021/12/23 13:27:55;;;;;;;;;;;5.40;76.00;;;;;;5056666;28;20007;-78
2021/12/23 13:30:21;;;;;;;;;;;5.40;76.00;;;;;;5057102;28;19939;-78
2021/12/23 13:32:56;;;;;;;;;;;5.40;76.00;;;;;;5056377;28;19908;-79
2021/12/23 13:35:22;;;;;;;;;;;5.40;76.20;;;;;;5057367;28;19913;-78
2021/12/23 13:37:47;;;;;;;;;;;5.40;76.30;;;;;;5075197;28;19935;-79
2021/12/23 13:40:25;;;;;;;;;;;5.40;76.30;;;;;;5057511;28;20315;-78
2021/12/23 13:42:50;;;;;;;;;;;5.40;76.40;;;;;;5074338;28;19908;-78
2021/12/23 13:45:16;;;;;;;;;;;5.40;76.40;;;;;;5072826;28;20394;-78
2021/12/23 13:47:41;;;;;;;;;;;5.40;76.50;;;;;;5055679;28;19909;-78
2021/12/23 13:50:08;;;;;;;;;;;5.40;76.60;;;;;;5073792;28;19999;-77
2021/12/23 13:52:42;;;;;;;;;;;5.40;76.60;;;;;;5073639;28;20042;-78
2021/12/23 13:55:12;;;;;;;;;;;5.40;76.60;;;;;;5055922;28;19923;-78
2021/12/23 13:57:41;;;;;;;;;;;5.50;76.70;;;;;;5055764;28;19915;-78
2021/12/23 14:00:14;;;;;;;;;;;5.40;76.70;;;;;;5055642;28;20276;-78
2021/12/23 14:02:39;;;;;;;;;;;5.40;76.80;;;;;;5073676;28;19916;-78
2021/12/23 14:05:06;;;;;;;;;;;5.40;76.80;;;;;;5072199;28;20330;-78
2021/12/23 14:07:34;;;;;;;;;;;5.40;76.90;;;;;;5055587;28;19908;-78
2021/12/23 14:10:20;;;;;;;;;;;5.50;77.00;;;;;;5055659;28;20002;-78
2021/12/23 14:12:50;;;;;;;;;;;5.50;77.10;;;;;;5047309;28;19909;-78
2021/12/23 14:15:26;;;;;;;;;;;5.40;77.20;;;;;;5055289;28;19997;-78
2021/12/23 14:18:01;;;;;;;;;;;5.40;77.20;;;;;;5073432;28;19908;-77
2021/12/23 14:23:18;;;;;;;;;;;5.40;77.50;;;;;;5073622;28;20019;-79
2021/12/23 14:25:45;;;;;;;;;;;5.40;77.60;;;;;;5073740;28;19908;-78
2021/12/23 14:28:12;;;;;;;;;;;5.40;77.70;;;;;;5055639;28;20260;-78
2021/12/23 14:30:39;;;;;;;;;;;5.40;78.10;;;;;;5073917;28;20375;-78
2021/12/23 14:33:09;;;;;;;;;;;5.40;77.80;;;;;;5056824;28;20372;-78
2021/12/23 14:35:35;;;;;;;;;;;5.40;77.90;;;;;;5059578;28;19912;-79
2021/12/23 14:38:01;;;;;;;;;;;5.40;78.00;;;;;;5078604;28;20363;-78
2021/12/23 14:40:27;;;;;;;;;;;5.40;78.00;;;;;;5059874;28;19963;-80
2021/12/23 14:42:56;;;;;;;;;;;5.40;78.20;;;;;;5060284;28;20349;-79
2021/12/23 14:45:22;;;;;;;;;;;5.40;78.30;;;;;;5060017;28;19971;-80
2021/12/23 14:47:57;;;;;;;;;;;5.40;78.40;;;;;;5059961;28;19962;-78
2021/12/23 14:50:24;;;;;;;;;;;5.40;78.50;;;;;;5060870;28;19924;-79
2021/12/23 14:52:53;;;;;;;;;;;5.40;78.60;;;;;;5059435;28;19940;-79
2021/12/23 14:55:20;;;;;;;;;;;5.40;78.80;;;;;;5075894;28;19960;-79
2021/12/23 14:57:50;;;;;;;;;;;5.40;78.80;;;;;;5059258;28;19931;-78
2021/12/23 15:00:18;;;;;;;;;;;5.40;78.90;;;;;;5059144;28;20386;-80
2021/12/23 15:02:44;;;;;;;;;;;5.40;79.00;;;;;;5077826;28;19908;-79
2021/12/23 15:05:12;;;;;;;;;;;5.40;79.10;;;;;;5059323;28;19909;-79
2021/12/23 15:07:45;;;;;;;;;;;5.40;79.20;;;;;;5059419;28;19919;-78
2021/12/23 15:13:38;;;;;;;;;;;5.40;79.60;;;;;;5076971;28;19981;-79
2021/12/23 15:16:19;;;;;;;;;;;5.40;79.70;;;;;;5059445;28;19916;-79
2021/12/23 15:21:33;;;;;;;;;;;5.30;80.00;;;;;;5076775;28;19912;-78
2021/12/23 15:23:59;;;;;;;;;;;5.30;80.10;;;;;;5075260;28;19904;-78
2021/12/23 15:26:33;;;;;;;;;;;5.30;80.20;;;;;;5058784;28;19904;-79
2021/12/23 15:29:02;;;;;;;;;;;5.30;80.40;;;;;;5058379;28;19910;-78
2021/12/23 15:31:28;;;;;;;;;;;5.30;80.40;;;;;;5058276;28;19908;-79
2021/12/23 15:33:53;;;;;;;;;;;5.30;80.50;;;;;;5058653;28;20364;-79
2021/12/23 15:36:19;;;;;;;;;;;5.30;80.60;;;;;;5076402;28;19949;-80
2021/12/23 15:38:44;;;;;;;;;;;5.30;80.60;;;;;;5077115;28;19946;-80
2021/12/23 15:41:10;;;;;;;;;;;5.30;80.70;;;;;;5045240;28;19963;-80
2021/12/23 15:43:36;;;;;;;;;;;5.30;80.90;;;;;;5038653;28;19950;-80
2021/12/23 15:46:01;;;;;;;;;;;5.30;81.00;;;;;;5038136;28;19904;-78
2021/12/23 15:48:27;;;;;;;;;;;5.30;81.10;;;;;;5039047;28;20015;-79
2021/12/23 15:50:53;;;;;;;;;;;5.30;81.20;;;;;;5039303;28;20363;-79
2021/12/23 15:53:20;;;;;;;;;;;5.30;81.30;;;;;;5039521;28;19905;-79
2021/12/23 15:55:46;;;;;;;;;;;5.30;81.40;;;;;;5039320;28;20327;-80
2021/12/23 15:58:12;;;;;;;;;;;5.30;81.40;;;;;;5035884;28;20003;-80
2021/12/23 16:00:37;;;;;;;;;;;5.30;81.30;;;;;;5053043;28;19920;-79
2021/12/23 16:03:03;;;;;;;;;;;5.40;81.40;;;;;;5038762;28;19905;-80